QPS weather

Campo Fontenelle Airport
Pirassununga, São Paulo, Brazil

Public forecast

Using degrees Celsius for public forecast. Weather courtesy of forecast.io.

Current aviation weather report (METAR) for Campo Fontenelle Airport

Retrieved 2020/02/17 18:00 UTC (2 minutes ago):

SBYS 171800Z VRB04KT 9999 SCT045 FEW050TCU 32/20 Q1013

Aviation forecast (TAF) for Campo Fontenelle Airport

Retrieved 2020/02/17 18:36 UTC (0 seconds ago):

TAF SBYS 171600Z 1718/1806 20010KT 8000 SHRA FEW045 FEW050TCU TX32/1719Z TN19/1805Z PROB40 1719/1724 09008KT TS SCT040 FEW050CB BECMG 1804/1806 04005KT CAVOK RMK PAY